createdAt,value
2018-06-13T00:00:49.448Z,99.99
2018-06-13T00:01:49.505Z,99.99
2018-06-13T00:02:49.494Z,99.99
2018-06-13T00:03:49.500Z,99.99
2018-06-13T00:04:49.524Z,99.99
2018-06-13T00:05:49.493Z,99.99
2018-06-13T00:06:49.409Z,99.99
2018-06-13T00:07:49.510Z,99.99
2018-06-13T00:08:49.579Z,99.99
2018-06-13T00:09:49.532Z,99.99
2018-06-13T00:10:49.511Z,99.99
2018-06-13T00:11:50.267Z,99.99
2018-06-13T00:12:49.526Z,99.99
2018-06-13T00:13:49.443Z,99.99
2018-06-13T00:14:49.478Z,99.99
2018-06-13T00:15:49.484Z,99.99
2018-06-13T00:16:49.501Z,99.99
2018-06-13T00:17:49.514Z,99.99
2018-06-13T00:18:49.477Z,99.99
2018-06-13T00:19:49.483Z,99.99
2018-06-13T00:20:49.517Z,99.99
2018-06-13T00:21:49.527Z,99.99
2018-06-13T00:22:49.554Z,99.99
2018-06-13T00:23:49.448Z,99.99
2018-06-13T00:24:49.446Z,99.99
2018-06-13T00:25:50.279Z,99.99
2018-06-13T00:26:49.456Z,99.99
2018-06-13T00:27:49.432Z,99.99
2018-06-13T00:28:49.363Z,99.99
2018-06-13T00:29:49.469Z,99.99
2018-06-13T00:30:49.534Z,99.99
2018-06-13T00:31:49.516Z,99.99
2018-06-13T00:32:50.274Z,99.99
2018-06-13T00:33:49.486Z,99.99
2018-06-13T00:34:49.520Z,99.99
2018-06-13T00:35:49.522Z,99.99
2018-06-13T00:36:49.463Z,99.99
2018-06-13T00:37:49.435Z,99.99
2018-06-13T00:38:49.463Z,99.99
2018-06-13T00:39:49.451Z,99.99
2018-06-13T00:40:49.450Z,99.99
2018-06-13T00:41:49.462Z,99.99
2018-06-13T00:42:49.470Z,99.99
2018-06-13T00:43:49.545Z,99.99
2018-06-13T00:44:49.481Z,99.99
2018-06-13T00:45:49.486Z,99.99
2018-06-13T00:46:49.471Z,99.99
2018-06-13T00:47:49.507Z,99.99
2018-06-13T00:48:49.542Z,99.99
2018-06-13T00:49:49.436Z,99.99
2018-06-13T00:50:49.446Z,99.99
2018-06-13T00:51:49.413Z,99.99
2018-06-13T00:52:50.329Z,99.99
2018-06-13T00:53:49.465Z,99.99
2018-06-13T00:54:50.275Z,99.99
2018-06-13T00:55:50.275Z,99.99
2018-06-13T00:56:50.324Z,99.99
2018-06-13T00:57:49.441Z,99.99
2018-06-13T00:58:49.476Z,99.99
2018-06-13T00:59:49.523Z,99.99
2018-06-13T01:00:49.497Z,99.99
2018-06-13T01:01:49.507Z,99.99
2018-06-13T01:02:49.376Z,99.99
2018-06-13T01:03:49.412Z,99.99
2018-06-13T01:04:49.412Z,99.99
2018-06-13T01:05:49.395Z,99.99
2018-06-13T01:06:50.286Z,99.99
2018-06-13T01:07:49.443Z,99.99
2018-06-13T01:08:49.412Z,99.99
2018-06-13T01:09:49.428Z,99.99
2018-06-13T01:10:49.446Z,99.99
2018-06-13T01:11:49.519Z,99.99
2018-06-13T01:12:49.500Z,99.99
2018-06-13T01:13:49.574Z,99.99
2018-06-13T01:14:49.517Z,99.99
2018-06-13T01:15:49.477Z,99.99
2018-06-13T01:16:49.411Z,99.99
2018-06-13T01:17:49.510Z,99.99
2018-06-13T01:18:50.284Z,99.99
2018-06-13T01:19:49.446Z,99.99
2018-06-13T01:20:49.430Z,99.99
2018-06-13T01:21:50.280Z,99.99
2018-06-13T01:22:49.418Z,99.99
2018-06-13T01:23:49.454Z,99.99
2018-06-13T01:24:49.482Z,99.99
2018-06-13T01:25:49.453Z,99.99
2018-06-13T01:26:49.484Z,99.99
2018-06-13T01:27:49.474Z,99.99
2018-06-13T01:28:49.429Z,99.99
2018-06-13T01:29:49.388Z,99.99
2018-06-13T01:30:49.403Z,99.99
2018-06-13T01:31:49.420Z,99.99
2018-06-13T01:32:49.438Z,99.99
2018-06-13T01:33:49.439Z,99.99
2018-06-13T01:34:49.512Z,99.99
2018-06-13T01:35:49.433Z,99.99
2018-06-13T01:36:49.526Z,99.99
2018-06-13T01:37:49.472Z,99.99
2018-06-13T01:38:49.537Z,99.99
2018-06-13T01:39:49.451Z,99.99
2018-06-13T01:40:50.286Z,99.99
2018-06-13T01:41:49.406Z,99.99
2018-06-13T01:42:49.403Z,99.99
2018-06-13T01:43:49.412Z,99.99
2018-06-13T01:44:49.404Z,99.99
2018-06-13T01:45:49.403Z,99.99
2018-06-13T01:46:49.408Z,99.99
2018-06-13T01:47:49.424Z,99.99
2018-06-13T01:48:49.411Z,99.99
2018-06-13T01:49:49.438Z,99.99
2018-06-13T01:50:49.427Z,99.99
2018-06-13T01:51:49.438Z,99.99
2018-06-13T01:52:49.414Z,99.99
2018-06-13T01:53:49.415Z,99.99
2018-06-13T01:54:49.420Z,99.99
2018-06-13T01:55:49.427Z,99.99
2018-06-13T01:56:49.416Z,99.99
2018-06-13T01:57:49.447Z,99.99
2018-06-13T01:58:49.419Z,99.99
2018-06-13T01:59:49.423Z,99.99
2018-06-13T02:00:49.443Z,99.99
2018-06-13T02:01:49.421Z,99.99
2018-06-13T02:02:49.421Z,99.99
2018-06-13T02:03:49.431Z,99.99
2018-06-13T02:04:49.480Z,99.99
2018-06-13T02:05:49.425Z,99.99
2018-06-13T02:06:49.425Z,99.99
2018-06-13T02:07:49.426Z,99.99
2018-06-13T02:08:49.432Z,99.99
2018-06-13T02:09:51.277Z,99.99
2018-06-13T02:10:49.429Z,99.99
2018-06-13T02:11:49.433Z,99.99
2018-06-13T02:12:49.434Z,99.99
2018-06-13T02:13:49.433Z,99.99
2018-06-13T02:14:49.465Z,99.99
2018-06-13T02:15:49.437Z,99.99
2018-06-13T02:16:49.472Z,99.99
2018-06-13T02:17:49.452Z,99.99
2018-06-13T02:18:49.438Z,99.99
2018-06-13T02:19:49.471Z,99.99
2018-06-13T02:20:49.442Z,99.99
2018-06-13T02:21:49.506Z,99.99
2018-06-13T02:22:49.441Z,99.99
2018-06-13T02:23:49.442Z,99.99
2018-06-13T02:24:49.444Z,99.99
2018-06-13T02:25:49.445Z,99.99
2018-06-13T02:26:49.465Z,99.99
2018-06-13T02:27:49.450Z,99.99
2018-06-13T02:28:49.447Z,99.99
2018-06-13T02:29:49.446Z,99.99
2018-06-13T02:30:49.460Z,99.99
2018-06-13T02:31:49.454Z,99.99
2018-06-13T02:32:49.449Z,99.99
2018-06-13T02:33:49.450Z,99.99
2018-06-13T02:34:49.480Z,99.99
2018-06-13T02:35:49.459Z,99.99
2018-06-13T02:36:49.452Z,99.99
2018-06-13T02:37:49.460Z,99.99
2018-06-13T02:38:49.454Z,99.99
2018-06-13T02:39:49.456Z,99.99
2018-06-13T02:40:49.484Z,99.99
2018-06-13T02:41:49.489Z,99.99
2018-06-13T02:42:49.458Z,99.99
2018-06-13T02:43:49.457Z,99.99
2018-06-13T02:44:49.499Z,99.99
2018-06-13T02:45:49.471Z,99.99
2018-06-13T02:46:49.462Z,99.99
2018-06-13T02:47:49.487Z,99.99
2018-06-13T02:48:49.470Z,99.99
2018-06-13T02:49:49.497Z,99.99
2018-06-13T02:50:49.463Z,99.99
2018-06-13T02:51:49.465Z,99.99
2018-06-13T02:52:49.541Z,99.99
2018-06-13T02:53:49.483Z,99.99
2018-06-13T02:54:49.522Z,99.99
2018-06-13T02:55:49.467Z,99.99
2018-06-13T02:56:49.521Z,99.99
2018-06-13T02:57:49.498Z,99.99
2018-06-13T02:58:49.469Z,99.99
2018-06-13T02:59:49.527Z,99.99
2018-06-13T03:00:49.470Z,99.99
2018-06-13T03:01:49.472Z,99.99
2018-06-13T03:02:49.477Z,99.99
2018-06-13T03:03:49.479Z,99.99
2018-06-13T03:04:49.492Z,99.99
2018-06-13T03:05:49.476Z,99.99
2018-06-13T03:06:51.293Z,99.99
2018-06-13T03:07:49.474Z,99.99
2018-06-13T03:08:49.482Z,99.99
2018-06-13T03:09:49.477Z,99.99
2018-06-13T03:10:49.483Z,99.99
2018-06-13T03:11:49.491Z,99.99
2018-06-13T03:12:49.477Z,99.99
2018-06-13T03:13:49.478Z,99.99
2018-06-13T03:14:49.479Z,99.99
2018-06-13T03:15:49.482Z,99.99
2018-06-13T03:16:49.487Z,99.99
2018-06-13T03:17:51.291Z,99.99
2018-06-13T03:18:49.504Z,99.99
2018-06-13T03:19:49.483Z,99.99
2018-06-13T03:20:49.618Z,99.99
2018-06-13T03:21:49.487Z,99.99
2018-06-13T03:22:49.485Z,99.99
2018-06-13T03:23:49.489Z,99.99
2018-06-13T03:24:49.489Z,99.99
2018-06-13T03:25:49.491Z,99.99
2018-06-13T03:26:49.489Z,99.99
2018-06-13T03:27:49.484Z,99.99
2018-06-13T03:28:49.489Z,99.99
2018-06-13T03:29:49.493Z,99.99
2018-06-13T03:30:49.496Z,99.99
2018-06-13T03:31:49.491Z,99.99
2018-06-13T03:32:49.489Z,99.99
2018-06-13T03:33:49.493Z,99.99
2018-06-13T03:34:49.491Z,99.99
2018-06-13T03:35:49.497Z,99.99
2018-06-13T03:36:49.496Z,99.99
2018-06-13T03:37:49.492Z,99.99
2018-06-13T03:38:49.516Z,99.99
2018-06-13T03:39:49.493Z,99.99
2018-06-13T03:40:49.498Z,99.99
2018-06-13T03:41:49.492Z,99.99
2018-06-13T03:42:49.495Z,99.99
2018-06-13T03:43:49.517Z,99.99
2018-06-13T03:44:51.300Z,99.99
2018-06-13T03:45:49.496Z,99.99
2018-06-13T03:46:49.498Z,99.99
2018-06-13T03:47:49.499Z,99.99
2018-06-13T03:48:49.500Z,99.99
2018-06-13T03:49:49.520Z,99.99
2018-06-13T03:50:49.508Z,99.99
2018-06-13T03:51:49.502Z,99.99
2018-06-13T03:52:49.509Z,99.99
2018-06-13T03:53:49.527Z,99.99
2018-06-13T03:54:49.501Z,99.99
2018-06-13T03:55:49.504Z,99.99
2018-06-13T03:56:49.503Z,99.99
2018-06-13T03:57:49.503Z,99.99
2018-06-13T03:58:49.506Z,99.99
2018-06-13T03:59:49.529Z,99.99
2018-06-13T04:00:49.544Z,99.99
2018-06-13T04:01:49.581Z,99.99
2018-06-13T04:02:49.505Z,99.99
2018-06-13T04:03:49.513Z,99.99
2018-06-13T04:04:49.537Z,99.99
2018-06-13T04:05:49.509Z,99.99
2018-06-13T04:06:49.507Z,99.99
2018-06-13T04:07:49.509Z,99.99
2018-06-13T04:08:51.299Z,99.99
2018-06-13T04:09:51.338Z,99.99
2018-06-13T04:10:51.305Z,99.99
2018-06-13T04:11:49.537Z,99.99
2018-06-13T04:12:49.528Z,99.99
2018-06-13T04:13:49.532Z,99.99
2018-06-13T04:14:49.513Z,99.99
2018-06-13T04:15:49.511Z,99.99
2018-06-13T04:16:49.601Z,99.99
2018-06-13T04:17:51.331Z,99.99
2018-06-13T04:18:49.516Z,99.99
2018-06-13T04:19:49.537Z,99.99
2018-06-13T04:20:49.514Z,99.99
2018-06-13T04:21:49.517Z,99.99
2018-06-13T04:22:49.516Z,99.99
2018-06-13T04:23:49.527Z,99.99
2018-06-13T04:24:49.543Z,99.99
2018-06-13T04:25:49.516Z,99.99
2018-06-13T04:26:49.517Z,99.99
2018-06-13T04:27:49.519Z,99.99
2018-06-13T04:28:49.521Z,99.99
2018-06-13T04:29:49.560Z,99.99
2018-06-13T04:30:49.524Z,99.99
2018-06-13T04:31:49.523Z,99.99
2018-06-13T04:32:49.526Z,99.99
2018-06-13T04:33:49.563Z,99.99
2018-06-13T04:34:49.526Z,99.99
2018-06-13T04:35:49.543Z,99.99
2018-06-13T04:36:49.529Z,99.99
2018-06-13T04:37:49.530Z,99.99
2018-06-13T04:38:49.531Z,99.99
2018-06-13T04:39:49.577Z,99.99
2018-06-13T04:40:49.555Z,99.99
2018-06-13T04:41:49.535Z,99.99
2018-06-13T04:42:49.527Z,99.99
2018-06-13T04:43:49.534Z,99.99
2018-06-13T04:44:49.527Z,99.99
2018-06-13T04:45:49.529Z,99.99
2018-06-13T04:46:49.534Z,99.99
2018-06-13T04:47:49.524Z,99.99
2018-06-13T04:48:51.303Z,99.99
2018-06-13T04:49:49.528Z,99.99
2018-06-13T04:50:49.538Z,99.99
2018-06-13T04:51:49.532Z,99.99
2018-06-13T04:52:49.533Z,99.99
2018-06-13T04:53:49.533Z,99.99
2018-06-13T04:54:49.539Z,99.99
2018-06-13T04:55:49.560Z,99.99
2018-06-13T04:56:49.538Z,99.99
2018-06-13T04:57:49.533Z,99.99
2018-06-13T04:58:49.533Z,99.99
2018-06-13T04:59:49.536Z,99.99
2018-06-13T05:00:49.539Z,99.99
2018-06-13T05:03:36.274Z,99.99
2018-06-13T05:04:36.385Z,99.99
2018-06-13T05:06:29.771Z,99.99
2018-06-13T05:07:29.229Z,99.99
2018-06-13T05:08:30.190Z,99.99
2018-06-13T05:09:30.861Z,99.99
2018-06-13T05:10:30.259Z,99.99
2018-06-13T05:11:29.223Z,99.99
2018-06-13T05:12:29.175Z,99.99
2018-06-13T05:13:29.205Z,99.99
2018-06-13T05:14:28.790Z,99.99
2018-06-13T05:15:28.773Z,99.99
2018-06-13T05:16:28.790Z,99.99
2018-06-13T05:17:28.841Z,99.99
2018-06-13T05:18:28.780Z,99.99
2018-06-13T05:20:23.124Z,99.99
2018-06-13T05:21:31.186Z,99.99
2018-06-13T05:23:16.010Z,99.99
2018-06-13T05:24:15.972Z,99.99
2018-06-13T05:26:08.893Z,99.99
2018-06-13T05:27:08.911Z,99.99
2018-06-13T05:29:02.421Z,99.99
2018-06-13T05:30:02.402Z,99.99
2018-06-13T05:31:55.153Z,99.99
2018-06-13T05:32:55.237Z,99.99
2018-06-13T05:34:48.123Z,99.99
2018-06-13T05:35:48.109Z,99.99
2018-06-13T05:37:41.582Z,99.99
2018-06-13T05:38:41.515Z,99.99
2018-06-13T05:40:34.817Z,99.99
2018-06-13T05:41:34.935Z,99.99
2018-06-13T05:43:28.826Z,99.99
2018-06-13T05:44:29.308Z,99.99
2018-06-13T05:45:28.714Z,99.99
2018-06-13T05:46:28.677Z,99.99
2018-06-13T05:47:28.433Z,99.99
2018-06-13T05:48:28.745Z,99.99
2018-06-13T05:49:28.317Z,99.99
2018-06-13T05:50:28.321Z,99.99
2018-06-13T05:51:28.319Z,99.99
2018-06-13T05:52:28.323Z,99.99
2018-06-13T05:53:28.323Z,99.99
2018-06-13T05:54:28.324Z,99.99
2018-06-13T05:55:28.323Z,99.99
2018-06-13T05:56:28.329Z,99.99
2018-06-13T05:57:28.330Z,99.99
2018-06-13T05:58:28.365Z,99.99
2018-06-13T05:59:28.339Z,99.99
2018-06-13T06:00:28.340Z,99.99
2018-06-13T06:01:28.448Z,99.99
2018-06-13T06:02:28.343Z,99.99
2018-06-13T06:03:28.336Z,99.99
2018-06-13T06:04:28.342Z,99.99
2018-06-13T06:05:28.341Z,99.99
2018-06-13T06:06:28.346Z,99.99
2018-06-13T06:07:28.349Z,99.99
2018-06-13T06:08:28.351Z,99.99
2018-06-13T06:09:28.352Z,99.99
2018-06-13T06:10:28.443Z,99.99
2018-06-13T06:11:28.357Z,99.99
2018-06-13T06:12:28.361Z,99.99
2018-06-13T06:13:28.365Z,99.99
2018-06-13T06:14:28.361Z,99.99
2018-06-13T06:15:28.362Z,99.99
2018-06-13T06:16:28.364Z,99.99
2018-06-13T06:17:28.373Z,99.19
2018-06-13T06:18:28.372Z,99.48
2018-06-13T06:19:28.368Z,99.96
2018-06-13T06:20:28.370Z,99.99
2018-06-13T06:21:28.373Z,99.99
2018-06-13T06:22:28.373Z,99.76
2018-06-13T06:23:28.384Z,99.52
2018-06-13T06:24:28.380Z,99.99
2018-06-13T06:25:28.379Z,99.99
2018-06-13T06:26:28.389Z,99.99
2018-06-13T06:27:28.386Z,99.99
2018-06-13T06:28:28.393Z,99.99
2018-06-13T06:29:28.393Z,99.99
2018-06-13T06:30:28.392Z,99.99
2018-06-13T06:31:28.425Z,99.99
2018-06-13T06:32:28.397Z,99.99
2018-06-13T06:33:28.401Z,99.99
2018-06-13T06:34:28.405Z,99.99
2018-06-13T06:35:28.404Z,99.99
2018-06-13T06:36:28.405Z,99.99
2018-06-13T06:37:28.405Z,99.99
2018-06-13T06:38:28.446Z,99.99
2018-06-13T06:39:28.416Z,99.99
2018-06-13T06:40:28.417Z,99.99
2018-06-13T06:41:28.416Z,99.96
2018-06-13T06:42:28.418Z,99.71
2018-06-13T06:43:28.420Z,99.90
2018-06-13T06:44:28.419Z,99.99
2018-06-13T06:45:28.423Z,99.99
2018-06-13T06:46:28.427Z,99.99
2018-06-13T06:47:28.428Z,99.62
2018-06-13T06:48:28.432Z,99.99
2018-06-13T06:49:28.430Z,99.90
2018-06-13T06:50:28.446Z,99.96
2018-06-13T06:51:28.438Z,99.62
2018-06-13T06:52:28.438Z,98.52
2018-06-13T06:53:28.438Z,98.47
2018-06-13T06:54:28.442Z,98.57
2018-06-13T06:55:28.510Z,97.99
2018-06-13T06:56:28.489Z,97.95
2018-06-13T06:57:28.444Z,96.51
2018-06-13T06:58:28.446Z,96.22
2018-06-13T06:59:28.457Z,96.61
2018-06-13T07:00:28.460Z,96.89
2018-06-13T07:01:28.466Z,95.84
2018-06-13T07:02:28.469Z,93.60
2018-06-13T07:03:28.469Z,93.55
2018-06-13T07:04:28.487Z,94.21
2018-06-13T07:05:28.465Z,95.27
2018-06-13T07:06:28.493Z,94.21
2018-06-13T07:07:28.513Z,95.07
2018-06-13T07:08:28.473Z,94.89
2018-06-13T07:09:28.575Z,93.55
2018-06-13T07:10:28.635Z,94.02
2018-06-13T07:11:28.497Z,93.16
2018-06-13T07:12:28.546Z,93.74
2018-06-13T07:13:30.476Z,93.74
2018-06-13T07:14:29.510Z,95.07
2018-06-13T07:15:28.484Z,94.02
2018-06-13T07:16:28.495Z,94.21
2018-06-13T07:17:28.507Z,94.31
2018-06-13T07:18:28.505Z,93.07
2018-06-13T07:19:28.502Z,92.88
2018-06-13T07:20:28.493Z,92.69
2018-06-13T07:21:28.498Z,92.49
2018-06-13T07:22:28.500Z,92.78
2018-06-13T07:23:28.506Z,93.45
2018-06-13T07:24:28.508Z,93.07
2018-06-13T07:25:28.553Z,91.35
2018-06-13T07:26:30.496Z,91.25
2018-06-13T07:27:28.517Z,90.96
2018-06-13T07:28:28.563Z,91.44
2018-06-13T07:29:28.518Z,91.30
2018-06-13T07:30:28.572Z,91.20
2018-06-13T07:31:28.540Z,91.59
2018-06-13T07:32:28.597Z,92.64
2018-06-13T07:33:31.411Z,93.60
2018-06-13T07:34:30.414Z,94.17
2018-06-13T07:35:28.532Z,94.36
2018-06-13T07:36:30.410Z,94.65
2018-06-13T07:37:28.531Z,94.26
2018-06-13T07:38:28.548Z,94.07
2018-06-13T07:39:28.635Z,93.98
2018-06-13T07:40:28.608Z,95.98
2018-06-13T07:41:30.442Z,96.08
2018-06-13T07:42:28.547Z,96.08
2018-06-13T07:43:28.590Z,95.41
2018-06-13T07:44:28.544Z,95.65
2018-06-13T07:45:28.544Z,95.84
2018-06-13T07:46:28.547Z,96.42
2018-06-13T07:47:28.550Z,96.61
2018-06-13T07:48:31.428Z,96.80
2018-06-13T07:49:28.601Z,97.56
2018-06-13T07:50:28.586Z,97.99
2018-06-13T07:51:30.430Z,97.23
2018-06-13T07:52:28.568Z,97.33
2018-06-13T07:53:28.606Z,97.42
2018-06-13T07:54:30.417Z,97.42
2018-06-13T07:55:28.570Z,97.71
2018-06-13T07:56:30.392Z,98.18
2018-06-13T07:57:28.583Z,97.13
2018-06-13T07:58:28.568Z,97.13
2018-06-13T07:59:28.630Z,97.61
2018-06-13T08:00:28.580Z,97.08
2018-06-13T08:01:28.640Z,95.79
2018-06-13T08:02:28.598Z,94.55
2018-06-13T08:03:28.650Z,94.93
2018-06-13T08:04:28.579Z,96.18
2018-06-13T08:05:28.576Z,95.46
2018-06-13T08:06:28.576Z,94.89
2018-06-13T08:07:28.579Z,93.93
2018-06-13T08:08:28.699Z,94.50
2018-06-13T08:09:28.585Z,94.89
2018-06-13T08:10:28.593Z,94.70
2018-06-13T08:11:28.590Z,92.59
2018-06-13T08:12:28.587Z,93.74
2018-06-13T08:13:28.589Z,93.45
2018-06-13T08:14:28.620Z,92.78
2018-06-13T08:15:28.596Z,92.21
2018-06-13T08:16:28.606Z,91.25
2018-06-13T08:17:28.599Z,90.20
2018-06-13T08:18:28.610Z,89.76
2018-06-13T08:19:28.604Z,88.90
2018-06-13T08:20:28.635Z,88.90
2018-06-13T08:21:28.610Z,89.38
2018-06-13T08:22:28.613Z,87.99
2018-06-13T08:23:28.616Z,85.08
2018-06-13T08:24:28.615Z,85.36
2018-06-13T08:25:28.646Z,84.69
2018-06-13T08:26:28.620Z,85.55
2018-06-13T08:27:28.630Z,86.17
2018-06-13T08:28:28.630Z,85.88
2018-06-13T08:29:28.625Z,82.92
2018-06-13T08:30:28.626Z,82.57
2018-06-13T08:31:28.635Z,81.23
2018-06-13T08:32:28.634Z,81.62
2018-06-13T08:33:28.640Z,81.18
2018-06-13T08:34:28.638Z,80.32
2018-06-13T08:35:28.644Z,79.07
2018-06-13T08:36:28.646Z,77.92
2018-06-13T08:37:28.648Z,79.45
2018-06-13T08:38:28.696Z,80.03
2018-06-13T08:39:30.407Z,79.64
2018-06-13T08:40:28.661Z,81.08
2018-06-13T08:41:28.661Z,80.55
2018-06-13T08:42:28.668Z,80.55
2018-06-13T08:43:28.671Z,80.64
2018-06-13T08:44:28.672Z,79.74
2018-06-13T08:45:28.683Z,79.55
2018-06-13T08:46:28.678Z,79.36
2018-06-13T08:47:28.683Z,79.74
2018-06-13T08:48:28.773Z,81.18
2018-06-13T08:49:28.705Z,80.70
2018-06-13T08:50:28.694Z,80.51
2018-06-13T08:51:28.699Z,81.43
2018-06-13T08:52:28.710Z,83.05
2018-06-13T08:53:28.707Z,81.90
2018-06-13T08:54:28.717Z,81.71
2018-06-13T08:55:28.715Z,82.19
2018-06-13T08:56:28.724Z,83.59
2018-06-13T08:57:28.727Z,84.58
2018-06-13T08:58:28.725Z,84.64
2018-06-13T08:59:28.731Z,86.17
2018-06-13T09:00:28.740Z,86.36
2018-06-13T09:01:28.741Z,86.08
2018-06-13T09:02:28.743Z,86.36
2018-06-13T09:03:28.749Z,87.32
2018-06-13T09:04:28.751Z,86.65
2018-06-13T09:05:28.782Z,86.84
2018-06-13T09:06:28.757Z,86.04
2018-06-13T09:07:28.758Z,86.32
2018-06-13T09:08:28.783Z,85.84
2018-06-13T09:09:28.767Z,85.94
2018-06-13T09:10:28.770Z,86.13
2018-06-13T09:11:28.796Z,85.98
2018-06-13T09:12:32.407Z,85.50
2018-06-13T09:13:28.805Z,84.26
2018-06-13T09:14:28.784Z,82.96
2018-06-13T09:15:28.812Z,82.86
2018-06-13T09:16:28.796Z,82.96
2018-06-13T09:17:28.859Z,82.29
2018-06-13T09:18:28.815Z,82.00
2018-06-13T09:19:28.803Z,82.09
2018-06-13T09:20:28.809Z,80.56
2018-06-13T09:21:28.813Z,82.09
2018-06-13T09:22:28.818Z,82.09
2018-06-13T09:23:28.865Z,81.04
2018-06-13T09:24:28.817Z,80.66
2018-06-13T09:25:28.918Z,80.08
2018-06-13T09:26:28.877Z,80.37
2018-06-13T09:27:28.834Z,80.85
2018-06-13T09:28:31.407Z,81.43
2018-06-13T09:29:36.820Z,81.23
2018-06-13T09:31:23.362Z,80.47
2018-06-13T09:32:23.367Z,81.04
2018-06-13T09:33:23.112Z,81.71
2018-06-13T09:34:23.021Z,81.52
2018-06-13T09:35:22.983Z,79.99
2018-06-13T09:36:23.111Z,80.04
2018-06-13T09:37:22.959Z,80.71
2018-06-13T09:38:22.939Z,80.33
2018-06-13T09:39:23.004Z,80.43
2018-06-13T09:40:22.965Z,81.86
2018-06-13T09:41:22.988Z,81.67
2018-06-13T09:42:22.934Z,82.43
2018-06-13T09:43:22.954Z,83.20
2018-06-13T09:44:22.922Z,83.11
2018-06-13T09:45:22.926Z,82.63
2018-06-13T09:46:22.955Z,82.73
2018-06-13T09:47:23.456Z,83.30
2018-06-13T09:48:22.939Z,83.20
2018-06-13T09:49:22.937Z,82.82
2018-06-13T09:50:22.947Z,82.15
2018-06-13T09:51:22.943Z,81.82
2018-06-13T09:52:22.957Z,81.44
2018-06-13T09:53:23.043Z,81.92
2018-06-13T09:54:28.125Z,83.06
2018-06-13T09:55:25.064Z,82.68
2018-06-13T09:56:44.181Z,82.97
2018-06-13T09:57:22.982Z,83.73
2018-06-13T09:58:22.966Z,83.49
2018-06-13T09:59:22.975Z,83.30
2018-06-13T10:00:23.009Z,82.53
2018-06-13T10:01:22.998Z,81.86
2018-06-13T10:02:22.981Z,81.81
2018-06-13T10:03:22.986Z,80.85
2018-06-13T10:04:23.019Z,80.47
2018-06-13T10:05:22.992Z,80.51
2018-06-13T10:06:22.991Z,80.03
2018-06-13T10:07:22.997Z,80.60
2018-06-13T10:08:23.066Z,79.36
2018-06-13T10:09:23.014Z,78.34
2018-06-13T10:10:23.006Z,79.30
2018-06-13T10:11:23.014Z,77.38
2018-06-13T10:12:23.036Z,77.80
2018-06-13T10:13:23.033Z,78.19
2018-06-13T10:14:23.024Z,77.33
2018-06-13T10:15:23.036Z,77.08
2018-06-13T10:16:23.028Z,75.50
2018-06-13T10:17:23.033Z,75.50
2018-06-13T10:18:23.039Z,75.08
2018-06-13T10:19:23.038Z,76.10
2018-06-13T10:20:23.072Z,77.73
2018-06-13T10:21:23.045Z,77.53
2018-06-13T10:22:23.052Z,79.41
2018-06-13T10:23:23.064Z,80.62
2018-06-13T10:24:23.333Z,82.43
2018-06-13T10:25:23.064Z,83.93
2018-06-13T10:26:23.064Z,85.17
2018-06-13T10:27:23.089Z,85.94
2018-06-13T10:28:23.810Z,87.18
2018-06-13T10:29:23.109Z,86.80
2018-06-13T10:30:23.110Z,87.37
2018-06-13T10:31:23.116Z,87.08
2018-06-13T10:32:23.085Z,86.57
2018-06-13T10:33:23.092Z,87.62
2018-06-13T10:34:23.155Z,87.23
2018-06-13T10:35:23.116Z,88.09
2018-06-13T10:36:23.101Z,87.52
2018-06-13T10:37:23.108Z,86.18
2018-06-13T10:38:23.116Z,86.66
2018-06-13T10:39:23.127Z,84.75
2018-06-13T10:40:23.148Z,85.13
2018-06-13T10:41:23.118Z,84.65
2018-06-13T10:42:23.119Z,85.89
2018-06-13T10:43:23.129Z,85.61
2018-06-13T10:44:23.198Z,84.55
2018-06-13T10:45:23.127Z,83.50
2018-06-13T10:46:23.135Z,84.27
2018-06-13T10:47:23.133Z,83.98
2018-06-13T10:48:23.148Z,84.46
2018-06-13T10:49:23.137Z,84.65
2018-06-13T10:50:23.206Z,84.55
2018-06-13T10:51:23.144Z,84.59
2018-06-13T10:52:23.153Z,83.93
2018-06-13T10:53:23.150Z,85.27
2018-06-13T10:54:23.153Z,85.46
2018-06-13T10:55:23.157Z,83.68
2018-06-13T10:56:23.156Z,82.73
2018-06-13T10:57:23.160Z,81.86
2018-06-13T10:59:17.269Z,81.54
2018-06-13T11:00:17.139Z,83.01
2018-06-13T11:02:10.537Z,82.63
2018-06-13T11:03:10.506Z,81.00
2018-06-13T11:05:03.736Z,81.00
2018-06-13T11:06:03.451Z,81.20
2018-06-13T11:07:56.289Z,80.14
2018-06-13T11:08:56.267Z,79.47
2018-06-13T11:10:49.153Z,79.75
2018-06-13T11:11:49.165Z,78.89
2018-06-13T11:13:42.072Z,79.57
2018-06-13T11:14:41.940Z,79.18
2018-06-13T11:16:34.923Z,78.22
2018-06-13T11:17:34.926Z,78.51
2018-06-13T11:19:27.830Z,77.65
2018-06-13T11:20:27.832Z,77.36
2018-06-13T11:22:22.248Z,77.69
2018-06-13T11:23:22.264Z,77.21
2018-06-13T11:25:15.272Z,76.35
2018-06-13T11:26:15.208Z,76.96
2018-06-13T11:28:08.706Z,76.86
2018-06-13T11:29:08.401Z,76.19
2018-06-13T11:31:01.199Z,76.52
2018-06-13T11:32:01.318Z,76.32
2018-06-13T11:33:54.382Z,73.55
2018-06-13T11:34:54.240Z,73.97
2018-06-13T11:36:47.189Z,73.68
2018-06-13T11:37:47.077Z,73.39
2018-06-13T11:39:40.066Z,72.68
2018-06-13T11:40:39.950Z,73.22
2018-06-13T11:42:32.787Z,75.43
2018-06-13T11:43:32.971Z,74.85
2018-06-13T11:45:26.376Z,74.66
2018-06-13T11:46:26.402Z,75.71
2018-06-13T11:48:19.259Z,76.15
2018-06-13T11:49:19.200Z,76.82
2018-06-13T11:51:12.219Z,77.69
2018-06-13T11:52:11.969Z,77.69
2018-06-13T11:54:04.869Z,76.06
2018-06-13T11:55:05.001Z,76.92
2018-06-13T11:56:57.951Z,77.02
2018-06-13T11:57:58.006Z,77.50
2018-06-13T11:59:50.790Z,77.50
2018-06-13T12:00:50.700Z,78.27
2018-06-13T12:02:43.756Z,76.25
2018-06-13T12:03:43.557Z,75.77
2018-06-13T12:05:36.465Z,75.01
2018-06-13T12:06:36.364Z,75.01
2018-06-13T12:08:30.079Z,74.91
2018-06-13T12:09:30.684Z,74.91
2018-06-13T12:11:23.595Z,75.29
2018-06-13T12:12:23.476Z,74.62
2018-06-13T12:14:16.819Z,73.90
2018-06-13T12:15:16.685Z,74.08
2018-06-13T12:17:10.327Z,72.55
2018-06-13T12:18:10.210Z,73.22
2018-06-13T12:20:03.751Z,74.12
2018-06-13T12:21:03.825Z,74.02
2018-06-13T12:22:56.312Z,72.72
2018-06-13T12:23:56.232Z,72.53
2018-06-13T12:25:49.398Z,72.43
2018-06-13T12:26:50.231Z,71.12
2018-06-13T12:28:42.470Z,69.26
2018-06-13T12:29:43.479Z,69.36
2018-06-13T12:31:36.340Z,71.47
2018-06-13T12:32:36.355Z,71.76
2018-06-13T12:34:28.656Z,71.72
2018-06-13T12:35:29.651Z,72.11
2018-06-13T12:37:22.564Z,72.01
2018-06-13T12:38:22.077Z,72.49
2018-06-13T12:40:15.618Z,72.27
2018-06-13T12:41:16.134Z,73.32
2018-06-13T12:43:12.801Z,75.04
2018-06-13T12:44:10.499Z,75.29
2018-06-13T12:46:02.176Z,75.77
2018-06-13T12:47:02.317Z,76.06
2018-06-13T12:48:55.764Z,77.08
2018-06-13T12:49:55.770Z,78.22
2018-06-13T12:51:48.080Z,78.22
2018-06-13T12:52:49.103Z,78.32
2018-06-13T12:54:41.348Z,79.95
2018-06-13T12:55:41.301Z,80.43
2018-06-13T12:57:34.857Z,79.18
2018-06-13T12:58:34.095Z,79.95
2018-06-13T13:10:49.549Z,79.75
2018-06-13T13:11:49.205Z,79.95
2018-06-13T13:13:42.426Z,80.14
2018-06-13T13:14:42.368Z,80.47
2018-06-13T13:16:37.349Z,78.74
2018-06-13T13:17:36.271Z,78.27
2018-06-13T13:19:29.119Z,78.30
2018-06-13T13:20:29.245Z,78.30
2018-06-13T13:22:28.132Z,77.34
2018-06-13T13:23:21.651Z,77.53
2018-06-13T13:25:14.543Z,75.75
2018-06-13T13:26:14.442Z,74.66
2018-06-13T13:28:07.878Z,75.71
2018-06-13T13:29:07.893Z,76.35
2018-06-13T13:31:00.000Z,77.73
2018-06-13T13:31:59.844Z,77.40
2018-06-13T13:33:53.127Z,76.25
2018-06-13T13:34:52.751Z,77.40
2018-06-13T13:36:45.967Z,77.69
2018-06-13T13:37:45.709Z,77.97
2018-06-13T13:39:39.466Z,77.02
2018-06-13T13:40:38.638Z,77.78
2018-06-13T13:42:31.420Z,77.59
2018-06-13T13:43:31.396Z,78.07
2018-06-13T13:45:25.136Z,79.41
2018-06-13T13:46:24.832Z,79.32
2018-06-13T13:48:18.758Z,77.88
2018-06-13T13:49:18.264Z,79.41
2018-06-13T13:51:11.744Z,80.18
2018-06-13T13:52:11.710Z,80.08
2018-06-13T13:54:04.842Z,77.88
2018-06-13T13:55:04.582Z,77.88
2018-06-13T13:56:57.566Z,79.03
2018-06-13T13:57:57.467Z,78.55
2018-06-13T13:59:50.576Z,79.13
2018-06-13T14:00:51.230Z,78.64
2018-06-13T14:02:44.519Z,79.70
2018-06-13T14:03:44.017Z,79.51
2018-06-13T14:05:36.505Z,80.37
2018-06-13T14:06:36.605Z,79.32
2018-06-13T14:08:29.139Z,79.60
2018-06-13T14:09:29.279Z,79.66
2018-06-13T14:11:22.833Z,80.52